West Salem, Wisconsin
Current Conditions -  °F | °C
As of 4:53 PM on Tuesday 27 Jan 2015 (Local Time) from KLSE Reporting Station
Overcast Overcast  
Wind Chill: -1°   Ceiling: 2300
Heat Index: -1°   Visibility: 10mi
Dew Point: -6°   Wind: 3mph
Humidity: 69%   Direction: 120°ESE
Pressure: 30.21"   Gusts: NA
Location:  43.9°N, 91.08°W
Report Text: KLSE 272253Z 12003KT 10SM OVC023 M01/M06 A3021 RMK AO2 SLP242 T10111061
Loading
Personal Weather Stations






























Interactive Weather Map New forecast layout! Learn more

10-Day Weather Forecast

Advertisements
Track Severe Weather on mobile